Time;durP1;ratioP1;P1;durP2;ratioP2;P2;SDS_P1;SDS_P2;PMS_P1;PMS_P2;Temp;Humidity;BMP_temperature;BMP_pressure;BME280_temperature;BME280_humidity;BME280_pressure;Samples;Min_cycle;Max_cycle;Signal;HPM_P1;HPM_P2
2023/02/15 00:01:36;;;;;;;13.95;9.00;;;;;;;18.61;42.26;102809.53;5102519;27;20027;-69
2023/02/15 00:04:03;;;;;;;12.90;8.57;;;;;;;18.60;42.30;102809.63;5122630;27;20039;-69
2023/02/15 00:06:29;;;;;;;14.40;9.13;;;;;;;18.58;42.25;102811.47;5122118;27;20475;-69
2023/02/15 00:08:55;;;;;;;15.32;10.05;;;;;;;18.56;42.49;102811.53;5122169;27;20069;-71
2023/02/15 00:14:21;;;;;;;15.00;8.93;;;;;;;18.57;42.35;102810.63;5097703;28;20066;-70
2023/02/15 00:16:48;;;;;;;13.85;9.45;;;;;;;18.55;42.12;102807.22;5122183;28;20114;-68
2023/02/15 00:19:16;;;;;;;16.48;9.52;;;;;;;18.49;42.18;102797.81;5122291;28;20475;-69
2023/02/15 00:21:42;;;;;;;14.45;9.32;;;;;;;18.52;42.41;102801.22;5122118;28;20106;-70
2023/02/15 00:24:10;;;;;;;14.98;9.80;;;;;;;18.46;42.28;102792.69;5122422;27;20558;-68
2023/02/15 00:26:37;;;;;;;13.35;9.07;;;;;;;18.49;42.40;102797.81;5122417;27;20035;-69
2023/02/15 00:29:03;;;;;;;11.65;8.90;;;;;;;18.50;42.47;102796.03;5104373;28;20076;-71
2023/02/15 00:31:31;;;;;;;16.45;9.95;;;;;;;18.47;42.54;102790.91;5122722;28;20437;-71
2023/02/15 00:34:04;;;;;;;14.35;9.93;;;;;;;18.45;42.33;102788.34;5121754;28;20035;-71
2023/02/15 00:36:30;;;;;;;13.38;9.82;;;;;;;18.47;42.31;102785.63;5105787;27;20052;-70
2023/02/15 00:38:55;;;;;;;16.45;9.68;;;;;;;18.46;42.18;102787.41;5126253;27;20046;-71
2023/02/15 00:41:21;;;;;;;14.80;10.00;;;;;;;18.46;42.28;102782.13;5126174;27;20031;-70
2023/02/15 00:43:46;;;;;;;14.07;10.27;;;;;;;18.44;42.28;102778.72;5126024;27;20033;-71
2023/02/15 00:46:11;;;;;;;15.52;10.00;;;;;;;18.44;42.15;102777.88;5126553;27;20758;-69
2023/02/15 00:48:36;;;;;;;15.93;10.07;;;;;;;18.44;42.21;102776.09;5126296;27;20023;-69
2023/02/15 00:51:02;;;;;;;15.07;10.17;;;;;;;18.42;42.16;102770.03;5125969;27;20400;-69
2023/02/15 00:53:28;;;;;;;15.20;10.50;;;;;;;18.40;42.20;102769.25;5125747;27;20291;-69
2023/02/15 00:55:54;;;;;;;14.05;10.27;;;;;;;18.39;41.97;102774.59;5125796;27;20029;-70
2023/02/15 00:58:19;;;;;;;16.98;11.07;;;;;;;18.37;42.07;102771.19;5125975;27;20023;-69
2023/02/15 01:00:46;;;;;;;18.20;10.82;;;;;;;18.38;42.15;102770.28;5125960;27;20066;-69
2023/02/15 01:03:13;;;;;;;18.60;10.85;;;;;;;18.37;42.23;102758.00;5125638;27;20041;-68
2023/02/15 01:05:38;;;;;;;18.63;11.25;;;;;;;18.35;42.19;102749.31;5125217;27;20092;-68
2023/02/15 01:08:04;;;;;;;14.38;9.80;;;;;;;18.31;41.89;102748.63;5125602;27;20027;-69
2023/02/15 01:10:29;;;;;;;17.85;9.73;;;;;;;18.29;42.12;102751.34;5124826;27;20053;-70
2023/02/15 01:12:55;;;;;;;14.25;10.18;;;;;;;18.28;41.98;102754.91;5106853;27;20083;-69
2023/02/15 01:15:21;;;;;;;15.30;10.60;;;;;;;18.29;41.96;102756.63;5125253;27;20047;-68
2023/02/15 01:17:51;;;;;;;16.13;10.18;;;;;;;18.27;42.08;102757.63;5125904;27;20031;-68
2023/02/15 01:20:26;;;;;;;14.98;10.63;;;;;;;18.25;42.25;102751.59;5106172;27;20038;-69
2023/02/15 01:22:52;;;;;;;16.00;10.70;;;;;;;18.27;42.08;102747.91;5124643;27;20035;-71
2023/02/15 01:25:18;;;;;;;13.90;10.38;;;;;;;18.26;42.00;102748.00;5125001;27;20039;-70
2023/02/15 01:27:44;;;;;;;14.40;9.95;;;;;;;18.26;42.01;102748.00;5125486;27;20038;-70
2023/02/15 01:30:10;;;;;;;14.77;10.50;;;;;;;18.22;42.00;102742.03;5124987;27;20029;-70
2023/02/15 01:32:35;;;;;;;15.73;10.98;;;;;;;18.25;42.12;102738.38;5124803;27;20038;-68
2023/02/15 01:35:01;;;;;;;15.35;10.43;;;;;;;18.24;42.08;102739.31;5124642;27;20027;-69
2023/02/15 01:37:26;;;;;;;13.82;10.07;;;;;;;18.23;42.02;102735.81;5125140;27;20035;-69
2023/02/15 01:39:53;;;;;;;16.00;10.93;;;;;;;18.20;41.91;102730.72;5124438;27;20050;-71
2023/02/15 01:42:25;;;;;;;15.25;10.88;;;;;;;18.21;42.02;102723.63;5124979;27;20434;-71
2023/02/15 01:45:18;;;;;;;15.82;10.52;;;;;;;18.20;41.96;102730.72;5124514;27;20176;-68
2023/02/15 01:48:12;;;;;;;16.05;10.90;;;;;;;18.19;42.17;102730.78;5124410;27;20063;-70
2023/02/15 01:50:44;;;;;;;14.40;10.18;;;;;;;18.18;42.11;102727.25;5118232;27;20111;-69
2023/02/15 01:53:27;;;;;;;14.52;10.77;;;;;;;18.18;42.06;102729.06;5124196;27;20038;-69
2023/02/15 01:56:04;;;;;;;16.05;11.20;;;;;;;18.12;41.91;102717.91;5124482;27;20063;-69
2023/02/15 01:58:31;;;;;;;15.80;10.70;;;;;;;18.14;41.83;102725.75;5124467;27;20053;-71
2023/02/15 02:00:59;;;;;;;15.85;10.48;;;;;;;18.10;41.83;102725.06;5124704;27;20031;-69
2023/02/15 02:03:47;;;;;;;14.40;10.73;;;;;;;18.11;42.02;102729.38;5125178;27;20374;-69
2023/02/15 02:06:12;;;;;;;15.57;10.70;;;;;;;18.12;41.91;102724.97;5124498;27;20058;-69
2023/02/15 02:08:38;;;;;;;15.13;10.48;;;;;;;18.08;42.14;102713.69;5124620;27;20787;-70
2023/02/15 02:11:10;;;;;;;13.07;10.27;;;;;;;18.05;41.97;102713.84;5124760;27;20034;-71
2023/02/15 02:13:36;;;;;;;16.73;10.55;;;;;;;18.09;42.17;102712.78;5124217;27;20114;-70
2023/02/15 02:16:48;;;;;;;15.40;10.55;;;;;;;18.04;41.92;102704.25;5123862;27;20161;-70
2023/02/15 02:19:20;;;;;;;14.48;10.90;;;;;;;18.08;42.07;102711.06;5080360;28;20028;-69
2023/02/15 02:22:07;;;;;;;13.18;9.82;;;;;;;18.06;41.76;102707.66;5080592;28;20036;-70
2023/02/15 02:24:39;;;;;;;14.80;10.80;;;;;;;18.05;42.08;102699.81;5108460;27;20047;-70
2023/02/15 02:27:07;;;;;;;13.85;10.65;;;;;;;18.04;41.95;102700.75;5124403;27;20562;-70
2023/02/15 02:29:38;;;;;;;14.57;10.65;;;;;;;18.03;41.83;102696.41;5123614;27;20040;-70
2023/02/15 02:32:36;;;;;;;15.57;10.52;;;;;;;18.02;41.86;102692.06;5123451;27;20050;-68
2023/02/15 02:35:11;;;;;;;15.50;10.05;;;;;;;18.00;42.12;102684.22;5123993;27;20035;-71
2023/02/15 02:38:08;;;;;;;13.70;9.80;;;;;;;17.97;42.08;102687.03;5123733;27;20512;-69
2023/02/15 02:40:55;;;;;;;14.13;9.98;;;;;;;17.99;41.94;102690.47;5123548;27;20035;-69
2023/02/15 02:43:31;;;;;;;15.40;9.88;;;;;;;17.95;42.08;102686.25;5123575;27;20027;-71
2023/02/15 02:46:02;;;;;;;17.10;10.75;;;;;;;17.97;41.89;102687.03;5123471;27;20031;-70
2023/02/15 02:48:31;;;;;;;13.45;10.43;;;;;;;17.97;41.96;102681.75;5123109;27;20035;-71
2023/02/15 02:50:57;;;;;;;13.32;9.57;;;;;;;17.95;41.97;102673.91;5123376;27;20454;-71
2023/02/15 02:53:23;;;;;;;14.13;10.13;;;;;;;17.93;41.81;102675.78;5123458;27;20059;-69
2023/02/15 02:56:01;;;;;;;14.25;10.10;;;;;;;17.91;41.98;102674.16;5123324;27;20530;-69
2023/02/15 02:58:39;;;;;;;16.23;10.85;;;;;;;17.92;41.88;102674.06;5122689;27;20031;-71
2023/02/15 03:01:21;;;;;;;14.52;10.82;;;;;;;17.91;42.06;102676.78;5122882;27;20026;-69
2023/02/15 03:03:50;;;;;;;17.83;11.30;;;;;;;17.92;41.82;102673.22;5123387;27;20029;-70
2023/02/15 03:06:27;;;;;;;13.45;9.45;;;;;;;17.89;42.01;102663.66;5123204;27;20039;-70
2023/02/15 03:09:04;;;;;;;15.07;10.20;;;;;;;17.87;41.92;102656.75;5123127;27;20716;-69
2023/02/15 03:11:30;;;;;;;13.60;10.10;;;;;;;17.89;41.85;102666.31;5103804;27;20123;-70
2023/02/15 03:13:56;;;;;;;13.77;10.00;;;;;;;17.89;41.77;102662.84;5122937;27;20069;-70
2023/02/15 03:16:25;;;;;;;16.23;10.88;;;;;;;17.88;42.02;102661.13;5122682;27;20179;-69
2023/02/15 03:19:09;;;;;;;13.90;10.02;;;;;;;17.86;41.87;102652.41;5122848;27;20031;-70
2023/02/15 03:21:42;;;;;;;11.70;9.60;;;;;;;17.88;41.83;102654.06;5123177;27;20089;-69
2023/02/15 03:24:12;;;;;;;16.33;10.48;;;;;;;17.86;41.88;102655.03;5122761;27;20126;-70
2023/02/15 03:26:39;;;;;;;12.73;9.80;;;;;;;17.84;41.93;102643.72;5103785;27;20102;-69
2023/02/15 03:29:07;;;;;;;13.88;10.27;;;;;;;17.85;41.97;102642.78;5122925;27;20031;-69
2023/02/15 03:31:39;;;;;;;16.58;10.77;;;;;;;17.83;41.93;102640.25;5122305;27;20027;-70
2023/02/15 03:34:09;;;;;;;13.30;9.90;;;;;;;17.84;41.92;102633.19;5122753;27;20113;-69
2023/02/15 03:36:37;;;;;;;15.40;10.52;;;;;;;17.84;41.74;102641.09;5122551;27;20045;-71
2023/02/15 03:39:13;;;;;;;14.95;10.10;;;;;;;17.80;41.78;102628.97;5122371;27;20027;-69
2023/02/15 03:41:55;;;;;;;12.95;9.95;;;;;;;17.75;41.77;102631.84;5122181;27;20993;-70
2023/02/15 03:44:28;;;;;;;15.45;10.02;;;;;;;17.81;41.61;102631.53;5122524;27;20023;-69
2023/02/15 03:47:12;;;;;;;14.30;10.03;;;;;;;17.81;42.02;102636.81;5122291;27;20031;-68
2023/02/15 03:53:05;;;;;;;14.55;9.70;;;;;;;17.76;41.88;102631.78;5122146;27;20072;-69
2023/02/15 03:55:30;;;;;;;14.93;10.00;;;;;;;17.76;41.81;102634.41;5122245;27;20031;-71
2023/02/15 04:03:40;;;;;;;14.75;9.48;;;;;;;17.76;41.83;102630.94;5121965;27;20502;-68
2023/02/15 04:06:05;;;;;;;12.02;9.50;;;;;;;17.72;41.66;102622.34;5122552;27;20058;-69
2023/02/15 04:11:14;;;;;;;14.30;10.07;;;;;;;17.73;41.95;102623.19;5122397;27;20501;-70
2023/02/15 04:13:40;;;;;;;13.77;9.50;;;;;;;17.75;41.98;102637.13;5121884;27;20255;-71
2023/02/15 04:16:05;;;;;;;12.90;9.70;;;;;;;17.74;41.67;102636.28;5122133;28;20126;-71
2023/02/15 04:26:52;;;;;;;12.40;8.98;;;;;;;17.67;41.71;102621.69;5122040;27;20107;-69
2023/02/15 04:29:19;;;;;;;14.18;9.63;;;;;;;17.66;41.59;102622.66;5121506;27;20459;-70
2023/02/15 04:31:44;;;;;;;14.80;9.30;;;;;;;17.67;41.68;102632.25;5122231;28;20056;-69
2023/02/15 04:34:10;;;;;;;15.00;9.52;;;;;;;17.68;41.81;102628.69;5121763;28;20023;-68
2023/02/15 04:36:36;;;;;;;13.82;9.52;;;;;;;17.64;41.56;102627.16;5122260;27;20035;-70
2023/02/15 04:39:01;;;;;;;16.63;9.57;;;;;;;17.66;41.80;102629.72;5121993;27;20375;-69
2023/02/15 04:41:27;;;;;;;13.60;9.10;;;;;;;17.64;41.80;102616.59;5121741;27;20108;-72
2023/02/15 04:43:52;;;;;;;13.73;9.48;;;;;;;17.64;41.65;102626.28;5121747;28;20133;-70
2023/02/15 04:46:17;;;;;;;13.57;9.18;;;;;;;17.65;41.71;102617.44;5122093;27;20398;-70
2023/02/15 04:48:43;;;;;;;12.80;9.45;;;;;;;17.65;41.53;102620.09;5122216;28;20142;-70
2023/02/15 04:51:09;;;;;;;12.95;9.38;;;;;;;17.62;41.59;102607.91;5121772;28;20039;-71
2023/02/15 04:53:35;;;;;;;12.55;8.98;;;;;;;17.65;41.64;102606.91;5121624;28;20490;-69
2023/02/15 04:56:00;;;;;;;14.20;9.38;;;;;;;17.61;41.64;102595.66;5121327;27;20031;-70
2023/02/15 04:58:26;;;;;;;14.05;8.63;;;;;;;17.65;41.55;102601.63;5121405;27;20027;-69
2023/02/15 05:00:55;;;;;;;12.85;8.75;;;;;;;17.64;41.66;102594.63;5121518;28;20604;-70
2023/02/15 05:03:20;;;;;;;12.52;9.13;;;;;;;17.59;41.67;102590.47;5121209;27;20118;-68
2023/02/15 05:05:46;;;;;;;13.45;9.32;;;;;;;17.61;41.74;102593.03;5102899;28;20462;-69
2023/02/15 05:08:11;;;;;;;12.32;9.48;;;;;;;17.61;41.86;102592.16;5102280;28;20027;-69
2023/02/15 05:10:36;;;;;;;14.90;8.80;;;;;;;17.64;41.56;102592.00;5121422;28;20031;-69
2023/02/15 05:13:01;;;;;;;12.50;8.70;;;;;;;17.62;41.53;102583.31;5120807;27;20271;-68
2023/02/15 05:15:27;;;;;;;13.52;8.60;;;;;;;17.61;41.88;102590.41;5121434;27;20362;-69
2023/02/15 05:17:52;;;;;;;12.65;8.70;;;;;;;17.61;41.88;102589.53;5121215;27;20095;-69
2023/02/15 05:20:18;;;;;;;12.13;8.15;;;;;;;17.61;41.87;102590.41;5121743;27;20031;-69
2023/02/15 05:22:44;;;;;;;11.32;8.35;;;;;;;17.57;41.71;102587.03;5122950;27;20486;-69
2023/02/15 05:30:37;;;;;;;12.68;8.65;;;;;;;17.59;42.07;102590.47;5125108;27;20316;-70
2023/02/15 05:33:02;;;;;;;10.95;7.80;;;;;;;17.59;42.13;102595.75;5124786;27;20043;-70
2023/02/15 05:35:27;;;;;;;9.93;7.10;;;;;;;17.57;41.90;102591.47;5125204;27;20035;-69
2023/02/15 05:37:53;;;;;;;11.23;6.90;;;;;;;17.58;41.61;102593.19;5125541;27;20023;-67
2023/02/15 05:40:18;;;;;;;11.02;6.22;;;;;;;17.58;41.17;102587.91;5125069;27;20127;-69
2023/02/15 05:42:43;;;;;;;9.48;6.15;;;;;;;17.63;40.91;102593.78;5125007;27;20467;-67
2023/02/15 05:45:09;;;;;;;9.65;6.35;;;;;;;17.63;40.86;102579.78;5125042;27;20035;-67
2023/02/15 05:47:34;;;;;;;8.65;5.70;;;;;;;17.71;40.68;102591.63;5125134;27;20027;-69
2023/02/15 05:49:59;;;;;;;8.47;6.00;;;;;;;17.74;40.57;102583.53;5124695;27;20034;-68
2023/02/15 05:52:25;;;;;;;8.63;5.72;;;;;;;17.79;40.23;102585.09;5124677;27;20267;-68
2023/02/15 05:54:50;;;;;;;9.23;6.00;;;;;;;17.85;40.10;102582.97;5124354;27;20429;-70
2023/02/15 05:57:15;;;;;;;9.85;6.07;;;;;;;17.91;40.06;102584.47;5124201;27;20046;-68
2023/02/15 05:59:41;;;;;;;10.97;6.50;;;;;;;17.93;39.83;102577.34;5124783;27;20027;-69
2023/02/15 06:02:06;;;;;;;8.30;5.60;;;;;;;17.96;39.66;102585.09;5123348;27;20287;-67
2023/02/15 06:04:31;;;;;;;9.55;5.90;;;;;;;17.99;39.24;102590.22;5123925;27;20058;-68
2023/02/15 06:06:57;;;;;;;8.48;5.63;;;;;;;18.05;39.22;102581.09;5124114;27;20023;-68
2023/02/15 06:09:22;;;;;;;9.27;5.45;;;;;;;18.07;39.25;102589.78;5124769;27;20031;-69
2023/02/15 06:11:47;;;;;;;7.82;5.57;;;;;;;18.07;39.11;102588.00;5104965;27;20482;-69
2023/02/15 06:14:12;;;;;;;9.23;6.18;;;;;;;18.09;38.73;102590.56;5124128;27;20056;-70
2023/02/15 06:16:38;;;;;;;6.72;4.97;;;;;;;18.10;38.72;102585.22;5123793;27;20058;-69
2023/02/15 06:19:03;;;;;;;9.55;6.13;;;;;;;18.10;38.67;102585.22;5123237;27;20035;-70
2023/02/15 06:21:30;;;;;;;8.50;5.45;;;;;;;18.17;38.78;102608.63;5123662;27;20035;-68
2023/02/15 06:23:55;;;;;;;7.63;5.28;;;;;;;18.15;38.81;102597.28;5123541;27;20039;-69
2023/02/15 06:26:20;;;;;;;8.20;5.43;;;;;;;18.17;38.83;102596.28;5123979;27;20031;-70
2023/02/15 06:28:46;;;;;;;8.80;5.50;;;;;;;18.16;38.96;102591.94;5124164;27;20039;-69
2023/02/15 06:31:11;;;;;;;8.85;5.68;;;;;;;18.16;38.81;102588.44;5124188;27;20454;-68
2023/02/15 06:33:36;;;;;;;7.93;5.33;;;;;;;18.20;38.66;102597.88;5122971;27;20034;-69
2023/02/15 06:36:03;;;;;;;8.55;5.32;;;;;;;18.19;38.99;102596.19;5123945;27;20324;-69
2023/02/15 06:38:28;;;;;;;8.98;5.90;;;;;;;18.17;39.19;102592.81;5105176;27;20084;-69
2023/02/15 06:40:54;;;;;;;8.75;5.07;;;;;;;18.19;39.07;102594.41;5124169;27;20039;-69
2023/02/15 06:43:19;;;;;;;8.50;5.90;;;;;;;18.20;38.97;102593.47;5104429;27;20467;-73
2023/02/15 06:45:44;;;;;;;7.85;5.05;;;;;;;18.20;39.19;102592.59;5122786;27;20039;-69
2023/02/15 06:48:10;;;;;;;8.45;5.70;;;;;;;18.18;39.22;102584.78;5122668;27;20031;-69
2023/02/15 06:50:36;;;;;;;8.75;5.45;;;;;;;18.21;39.49;102583.75;5104737;27;20037;-68
2023/02/15 06:53:02;;;;;;;7.05;5.15;;;;;;;18.24;39.51;102589.72;5123429;27;20039;-69
2023/02/15 06:55:27;;;;;;;8.93;5.05;;;;;;;18.25;39.29;102580.03;5122909;27;20042;-70
2023/02/15 06:57:53;;;;;;;7.90;5.35;;;;;;;18.22;39.28;102570.50;5122390;27;20023;-69
2023/02/15 07:00:18;;;;;;;8.93;5.43;;;;;;;18.25;39.50;102574.75;5122541;27;20031;-69
2023/02/15 07:02:44;;;;;;;7.50;5.43;;;;;;;18.26;39.44;102571.16;5122990;27;20183;-69
2023/02/15 07:05:09;;;;;;;8.07;5.35;;;;;;;18.28;39.41;102571.94;5121588;27;20096;-69
2023/02/15 07:07:35;;;;;;;7.85;5.15;;;;;;;18.27;39.62;102560.53;5122729;27;20045;-70
2023/02/15 07:10:00;;;;;;;7.68;5.50;;;;;;;18.30;39.63;102556.88;5103698;27;20031;-69
2023/02/15 07:12:41;;;;;;;8.23;5.20;;;;;;;18.31;39.62;102559.44;5122516;27;20031;-68
2023/02/15 07:15:11;;;;;;;7.93;5.32;;;;;;;18.28;39.79;102556.97;5122591;27;20043;-68
2023/02/15 07:17:36;;;;;;;8.90;5.47;;;;;;;18.25;39.81;102553.66;5122741;27;20027;-69
2023/02/15 07:20:07;;;;;;;7.32;4.97;;;;;;;18.31;39.84;102569.16;5122405;27;20493;-69
2023/02/15 07:22:35;;;;;;;7.85;5.32;;;;;;;18.31;39.76;102562.06;5121938;27;20049;-70
2023/02/15 07:25:01;;;;;;;7.97;5.50;;;;;;;18.31;39.84;102554.16;5122190;27;20034;-68
2023/02/15 07:27:26;;;;;;;8.27;5.40;;;;;;;18.31;39.89;102558.59;5122781;27;20035;-69
2023/02/15 07:29:51;;;;;;;8.30;5.55;;;;;;;18.31;39.78;102554.16;5122227;27;20023;-68
2023/02/15 07:32:17;;;;;;;7.72;5.43;;;;;;;18.36;40.03;102555.66;5122284;27;20031;-70
2023/02/15 07:34:42;;;;;;;8.47;5.50;;;;;;;18.36;39.86;102553.03;5122257;27;20038;-69
2023/02/15 07:37:07;;;;;;;9.18;5.72;;;;;;;18.34;39.99;102550.50;5122127;27;20259;-68
2023/02/15 07:39:32;;;;;;;7.47;5.10;;;;;;;18.38;39.74;102556.47;5121894;27;20027;-69
2023/02/15 07:41:59;;;;;;;9.13;5.20;;;;;;;18.38;40.09;102554.66;5122067;27;20190;-71
2023/02/15 07:44:25;;;;;;;6.97;4.97;;;;;;;18.39;40.17;102561.66;5103351;27;20391;-69
2023/02/15 07:46:50;;;;;;;8.20;5.15;;;;;;;18.37;40.21;102555.59;5121858;27;20042;-69
2023/02/15 07:49:15;;;;;;;7.88;5.40;;;;;;;18.38;40.11;102553.81;5122220;27;20031;-70
2023/02/15 07:51:41;;;;;;;7.47;5.50;;;;;;;18.37;40.22;102549.47;5122062;27;20284;-70
2023/02/15 07:54:06;;;;;;;8.95;5.80;;;;;;;18.40;40.01;102551.94;5122219;27;20027;-69
2023/02/15 07:56:32;;;;;;;8.57;5.40;;;;;;;18.37;40.23;102538.91;5121981;27;20031;-70
2023/02/15 07:59:00;;;;;;;8.65;5.45;;;;;;;18.40;40.15;102550.13;5122446;27;20360;-71
2023/02/15 08:01:27;;;;;;;7.72;5.47;;;;;;;18.41;40.18;102545.72;5122209;27;20019;-71
2023/02/15 08:03:53;;;;;;;8.27;5.40;;;;;;;18.41;40.44;102553.66;5121632;27;20436;-68
2023/02/15 08:06:20;;;;;;;7.72;5.45;;;;;;;18.39;40.32;102548.47;5121912;27;20039;-69
2023/02/15 08:08:46;;;;;;;9.35;5.10;;;;;;;18.43;40.24;102551.75;5121783;27;20023;-70
2023/02/15 08:11:28;;;;;;;8.23;5.55;;;;;;;18.43;40.39;102547.31;5122432;27;20027;-67
2023/02/15 08:13:59;;;;;;;8.98;5.68;;;;;;;18.44;40.46;102550.84;5121378;27;20127;-69
2023/02/15 08:16:38;;;;;;;8.68;5.60;;;;;;;18.43;40.61;102549.97;5121801;27;20035;-68
2023/02/15 08:19:08;;;;;;;8.43;6.28;;;;;;;18.40;40.73;102531.66;5121802;27;20119;-68
2023/02/15 08:21:36;;;;;;;9.00;5.32;;;;;;;18.42;41.12;102545.66;5121704;28;20080;-70
2023/02/15 08:24:02;;;;;;;9.68;5.47;;;;;;;18.41;41.36;102538.66;5121720;27;20088;-69
2023/02/15 08:26:29;;;;;;;8.70;5.43;;;;;;;18.44;41.52;102542.91;5122077;27;20084;-68
2023/02/15 08:28:55;;;;;;;7.32;5.32;;;;;;;18.44;41.63;102542.91;5121746;28;20057;-69
2023/02/15 08:31:20;;;;;;;14.60;5.80;;;;;;;18.45;41.90;102544.59;5121856;27;20042;-68
2023/02/15 08:33:48;;;;;;;8.32;5.03;;;;;;;18.46;42.00;102543.69;5102534;28;20027;-69
2023/02/15 08:36:16;;;;;;;9.35;6.10;;;;;;;18.47;42.06;102542.75;5121149;28;20126;-68
2023/02/15 08:38:42;;;;;;;7.40;5.35;;;;;;;18.48;42.20;102532.09;5121733;27;20562;-72
2023/02/15 08:41:16;;;;;;;10.23;5.80;;;;;;;18.53;42.18;102547.66;5122005;28;20033;-69
2023/02/15 08:43:42;;;;;;;9.82;5.75;;;;;;;18.54;42.34;102538.81;5121734;27;20035;-71
2023/02/15 08:46:09;;;;;;;8.40;5.25;;;;;;;18.51;42.58;102524.94;5121807;27;20555;-73
2023/02/15 08:48:34;;;;;;;9.38;5.75;;;;;;;18.55;42.57;102529.97;5121530;27;20070;-69
2023/02/15 08:51:06;;;;;;;8.40;5.65;;;;;;;18.54;42.93;102533.53;5121664;28;20082;-70
2023/02/15 08:53:31;;;;;;;8.68;5.72;;;;;;;18.58;42.84;102534.19;5121378;27;20114;-69
2023/02/15 08:55:57;;;;;;;8.30;5.10;;;;;;;18.58;43.23;102529.78;5121680;27;20119;-70
2023/02/15 08:58:23;;;;;;;8.57;5.55;;;;;;;18.58;42.97;102529.78;5124536;27;21018;-69
2023/02/15 09:00:49;;;;;;;9.23;5.50;;;;;;;18.62;43.05;102525.19;5125645;27;20031;-69
2023/02/15 09:03:14;;;;;;;8.77;5.55;;;;;;;18.62;43.02;102527.81;5106229;27;20113;-68
2023/02/15 09:05:39;;;;;;;9.53;5.77;;;;;;;18.62;43.07;102523.38;5125854;27;20050;-69
2023/02/15 09:08:04;;;;;;;8.23;5.63;;;;;;;18.62;43.15;102512.81;5125250;27;21173;-70
2023/02/15 09:10:30;;;;;;;8.82;5.95;;;;;;;18.67;43.29;102526.63;5125587;27;20031;-71
2023/02/15 09:12:55;;;;;;;11.45;5.40;;;;;;;18.68;43.06;102522.19;5125010;27;20062;-71
2023/02/15 09:15:20;;;;;;;11.43;5.90;;;;;;;18.70;43.31;102520.31;5122606;27;20043;-70
2023/02/15 09:17:46;;;;;;;9.07;5.28;;;;;;;18.70;43.34;102507.09;5124233;27;20271;-66
2023/02/15 09:20:12;;;;;;;11.00;6.30;;;;;;;18.75;43.43;102506.84;5125693;27;20023;-65
2023/02/15 09:22:37;;;;;;;10.32;6.25;;;;;;;18.84;43.39;102512.47;5125720;27;20034;-66
2023/02/15 09:25:02;;;;;;;8.70;6.20;;;;;;;18.85;43.36;102508.91;5124947;27;20027;-71
2023/02/15 09:27:29;;;;;;;11.25;7.15;;;;;;;18.87;43.12;102500.00;5124192;27;20751;-70
2023/02/15 09:29:54;;;;;;;10.43;6.45;;;;;;;18.89;43.55;102506.91;5124348;27;20078;-69
2023/02/15 09:32:20;;;;;;;9.90;6.20;;;;;;;18.87;43.81;102497.38;5123901;27;20063;-70
2023/02/15 09:34:45;;;;;;;11.73;6.07;;;;;;;18.91;43.78;102499.75;5123831;27;20395;-70
2023/02/15 09:37:10;;;;;;;10.38;6.63;;;;;;;18.92;43.69;102496.19;5124579;27;20031;-69
2023/02/15 09:39:39;;;;;;;10.02;6.57;;;;;;;18.88;43.88;102494.66;5124232;27;20033;-68
2023/02/15 09:42:25;;;;;;;12.18;6.10;;;;;;;18.85;44.39;102494.84;5124269;27;20074;-68
2023/02/15 09:45:23;;;;;;;12.48;6.75;;;;;;;18.81;44.45;102498.56;5123767;27;20720;-68
2023/02/15 09:47:48;;;;;;;11.32;6.55;;;;;;;18.91;44.28;102506.84;5124206;27;20027;-73
2023/02/15 09:50:35;;;;;;;9.63;6.57;;;;;;;18.91;43.96;102509.47;5124389;27;20031;-68
2023/02/15 09:53:32;;;;;;;9.45;6.43;;;;;;;18.91;44.37;102504.19;5124038;27;20282;-68
2023/02/15 09:56:02;;;;;;;10.88;7.07;;;;;;;18.88;43.89;102502.56;5123676;27;20383;-70
2023/02/15 09:59:03;;;;;;;11.35;6.65;;;;;;;18.89;44.05;102514.84;5120027;27;20113;-67
2023/02/15 10:01:40;;;;;;;11.75;6.85;;;;;;;18.87;44.32;102514.09;5088313;27;20062;-66
2023/02/15 10:04:20;;;;;;;10.57;6.80;;;;;;;18.88;44.14;102504.38;5120673;27;20115;-63
2023/02/15 10:07:06;;;;;;;15.48;6.78;;;;;;;18.91;44.46;102517.41;5123633;27;20043;-69
2023/02/15 10:09:48;;;;;;;12.35;6.82;;;;;;;18.87;44.55;102521.16;5122219;27;20034;-68
2023/02/15 10:12:35;;;;;;;12.10;6.82;;;;;;;18.89;44.34;102522.78;5123753;27;20042;-67
2023/02/15 10:15:18;;;;;;;11.63;7.15;;;;;;;18.90;43.49;102511.28;5122918;27;20467;-66
2023/02/15 10:18:17;;;;;;;14.73;7.22;;;;;;;18.91;42.89;102523.53;5123167;27;20049;-66
2023/02/15 10:20:45;;;;;;;9.20;6.80;;;;;;;18.91;42.91;102526.16;5123107;27;20489;-68
2023/02/15 10:23:31;;;;;;;10.10;6.65;;;;;;;18.91;42.68;102520.03;5123549;27;20502;-67
2023/02/15 10:25:59;;;;;;;10.05;6.15;;;;;;;18.91;42.53;102518.25;5122933;27;20088;-67
2023/02/15 10:29:08;;;;;;;9.52;6.28;;;;;;;18.92;42.53;102524.41;5123543;27;20058;-67
2023/02/15 10:31:54;;;;;;;10.98;6.18;;;;;;;18.92;42.46;102521.75;5123276;27;20035;-68
2023/02/15 10:34:39;;;;;;;11.20;7.00;;;;;;;18.95;42.09;102514.50;5122790;27;20039;-68
2023/02/15 10:37:22;;;;;;;9.68;6.75;;;;;;;19.03;41.58;102514.03;5123516;27;20371;-66
2023/02/15 10:39:59;;;;;;;8.52;6.40;;;;;;;19.00;41.83;102512.44;5103954;27;20054;-67
2023/02/15 10:42:59;;;;;;;9.32;6.15;;;;;;;18.97;41.80;102506.47;5120509;27;20031;-67
2023/02/15 10:45:47;;;;;;;9.43;6.57;;;;;;;18.93;41.71;102497.03;5121544;27;20440;-67
2023/02/15 10:48:19;;;;;;;11.88;6.43;;;;;;;18.95;41.76;102495.16;5122657;27;20106;-68
2023/02/15 10:50:51;;;;;;;10.77;5.75;;;;;;;18.89;41.83;102488.44;5122589;27;20067;-67
2023/02/15 10:53:34;;;;;;;10.60;6.50;;;;;;;18.93;41.64;102494.38;5122564;27;20451;-68
2023/02/15 10:56:26;;;;;;;13.43;7.03;;;;;;;18.92;41.64;102490.06;5122216;27;20063;-68
2023/02/15 10:58:54;;;;;;;12.27;7.07;;;;;;;18.97;41.23;102487.97;5119368;27;20115;-70
2023/02/15 11:01:44;;;;;;;9.32;6.75;;;;;;;18.96;41.52;102491.56;5113310;27;20051;-67
2023/02/15 11:04:47;;;;;;;10.73;6.68;;;;;;;18.95;41.34;102490.72;5114710;27;20026;-67
2023/02/15 11:07:26;;;;;;;10.23;6.13;;;;;;;18.98;41.16;102484.41;5112742;27;20023;-65
2023/02/15 11:10:13;;;;;;;11.35;5.90;;;;;;;19.05;40.94;102480.44;5113535;27;20134;-67
2023/02/15 11:12:42;;;;;;;9.95;6.35;;;;;;;19.02;41.38;102484.09;5113807;27;20086;-68
2023/02/15 11:15:22;;;;;;;9.95;6.43;;;;;;;19.01;40.96;102489.53;5113515;27;20070;-67
2023/02/15 11:17:58;;;;;;;10.68;6.45;;;;;;;18.98;41.13;102493.19;5112772;27;20019;-68
2023/02/15 11:20:38;;;;;;;9.25;6.32;;;;;;;18.98;41.12;102492.34;5094245;27;20047;-68
2023/02/15 11:23:15;;;;;;;9.57;6.15;;;;;;;18.97;41.13;102478.25;5120617;27;20475;-68
2023/02/15 11:25:42;;;;;;;12.20;6.60;;;;;;;18.97;41.16;102474.78;5121905;27;20043;-68
2023/02/15 11:28:44;;;;;;;10.27;6.75;;;;;;;18.96;41.01;102473.94;5122165;27;20130;-68
2023/02/15 11:31:52;;;;;;;9.95;7.13;;;;;;;19.03;40.84;102469.97;5075718;27;20539;-65
2023/02/15 11:34:29;;;;;;;10.38;6.45;;;;;;;19.15;40.56;102462.25;5121170;27;20471;-65
2023/02/15 11:36:58;;;;;;;12.07;6.38;;;;;;;19.21;40.40;102459.25;5122445;27;20038;-64
2023/02/15 11:39:28;;;;;;;12.02;6.78;;;;;;;19.20;40.41;102457.53;5122447;27;20027;-66
2023/02/15 11:41:59;;;;;;;8.90;6.22;;;;;;;19.17;40.39;102448.00;5122385;27;20047;-65
2023/02/15 11:44:31;;;;;;;13.88;6.75;;;;;;;19.13;40.38;102441.19;5121994;27;20046;-66
2023/02/15 11:46:56;;;;;;;12.55;7.10;;;;;;;19.14;40.25;102440.25;5122351;27;20487;-65
2023/02/15 11:49:24;;;;;;;15.10;6.47;;;;;;;19.11;40.51;102442.25;5122379;27;20100;-67
2023/02/15 11:51:51;;;;;;;10.88;6.55;;;;;;;19.09;40.43;102441.47;5122300;27;20042;-64
2023/02/15 11:54:21;;;;;;;10.98;6.78;;;;;;;19.07;40.53;102433.63;5121936;27;20023;-63
2023/02/15 11:56:47;;;;;;;10.68;6.85;;;;;;;19.08;40.44;102432.69;5120004;27;20463;-68
2023/02/15 11:59:24;;;;;;;10.73;6.93;;;;;;;19.07;40.71;102432.78;5101886;28;20041;-69
2023/02/15 12:01:51;;;;;;;9.70;6.38;;;;;;;19.08;40.49;102431.88;5120936;27;20035;-69
2023/02/15 12:04:25;;;;;;;9.68;6.20;;;;;;;19.05;40.44;102427.59;5121748;27;20086;-69